Time;durP1;ratioP1;P1;durP2;ratioP2;P2;SDS_P1;SDS_P2;PMS_P1;PMS_P2;Temp;Humidity;BMP_temperature;BMP_pressure;BME280_temperature;BME280_humidity;BME280_pressure;Samples;Min_cycle;Max_cycle;Signal;HPM_P1;HPM_P2
2022/04/13 00:01:36;;;;;;;6.70;4.40;;;;;;;;;;5122604;27;20079;-69
2022/04/13 00:04:01;;;;;;;7.97;4.53;;;;;;;;;;5125932;27;20403;-69
2022/04/13 00:06:30;;;;;;;9.60;4.60;;;;;;;;;;5106838;27;20015;-70
2022/04/13 00:08:56;;;;;;;8.38;4.57;;;;;;;;;;5106009;27;20037;-70
2022/04/13 00:11:21;;;;;;;10.65;4.40;;;;;;;;;;5122338;27;20019;-70
2022/04/13 00:13:47;;;;;;;10.70;4.50;;;;;;;;;;5106106;27;20653;-69
2022/04/13 00:16:13;;;;;;;7.07;4.15;;;;;;;;;;5106496;27;20031;-70
2022/04/13 00:18:38;;;;;;;10.35;4.55;;;;;;;;;;5088856;27;20130;-71
2022/04/13 00:21:04;;;;;;;10.20;4.53;;;;;;;;;;5106164;27;20023;-69
2022/04/13 00:23:31;;;;;;;7.80;4.30;;;;;;;;;;5103791;27;20110;-69
2022/04/13 00:25:57;;;;;;;10.63;4.60;;;;;;;;;;5103008;27;20425;-71
2022/04/13 00:28:23;;;;;;;11.52;5.28;;;;;;;;;;5105804;27;20155;-71
2022/04/13 00:30:48;;;;;;;10.70;4.57;;;;;;;;;;5088633;27;20122;-70
2022/04/13 00:33:13;;;;;;;11.10;4.53;;;;;;;;;;5105552;27;20022;-69
2022/04/13 00:35:39;;;;;;;8.57;4.53;;;;;;;;;;5104312;27;20050;-70
2022/04/13 00:38:05;;;;;;;11.75;5.15;;;;;;;;;;5086669;27;20023;-69
2022/04/13 00:40:36;;;;;;;6.63;4.15;;;;;;;;;;5104711;27;20027;-69
2022/04/13 00:43:02;;;;;;;10.55;4.32;;;;;;;;;;5104865;27;20019;-69
2022/04/13 00:45:27;;;;;;;8.90;4.30;;;;;;;;;;5125414;27;20405;-70
2022/04/13 00:47:52;;;;;;;6.82;4.22;;;;;;;;;;5107431;27;20106;-70
2022/04/13 00:50:20;;;;;;;12.57;4.63;;;;;;;;;;5127217;27;20151;-70
2022/04/13 00:52:47;;;;;;;9.02;4.30;;;;;;;;;;5122394;27;20023;-69
2022/04/13 00:55:13;;;;;;;12.90;4.22;;;;;;;;;;5128560;27;20496;-69
2022/04/13 00:57:40;;;;;;;8.55;4.18;;;;;;;;;;5120136;27;20110;-70
2022/04/13 01:00:06;;;;;;;9.27;4.50;;;;;;;;;;5146227;27;20418;-70
2022/04/13 01:02:32;;;;;;;14.13;4.55;;;;;;;;;;5125635;27;20030;-70
2022/04/13 01:05:02;;;;;;;10.88;3.90;;;;;;;;;;5124596;27;20030;-70
2022/04/13 01:07:29;;;;;;;10.07;3.97;;;;;;;;;;5124598;27;20046;-68
2022/04/13 01:09:55;;;;;;;9.73;4.18;;;;;;;;;;5143909;27;20449;-70
2022/04/13 01:12:20;;;;;;;8.52;3.63;;;;;;;;;;5140902;27;20019;-70
2022/04/13 01:14:46;;;;;;;7.40;3.92;;;;;;;;;;5124069;27;20026;-71
2022/04/13 01:17:11;;;;;;;7.85;3.40;;;;;;;;;;5125333;27;20113;-68
2022/04/13 01:19:37;;;;;;;9.13;3.85;;;;;;;;;;5142818;27;20250;-70
2022/04/13 01:22:13;;;;;;;11.35;4.78;;;;;;;;;;5125525;27;20034;-70
2022/04/13 01:24:38;;;;;;;11.25;3.95;;;;;;;;;;5122319;27;20113;-71
2022/04/13 01:27:03;;;;;;;12.20;4.70;;;;;;;;;;5123161;27;20449;-71
2022/04/13 01:29:29;;;;;;;11.48;5.28;;;;;;;;;;5146043;27;20369;-71
2022/04/13 01:31:55;;;;;;;10.82;4.70;;;;;;;;;;5102437;27;20826;-70
2022/04/13 01:34:20;;;;;;;8.52;4.35;;;;;;;;;;5144767;27;20111;-70
2022/04/13 01:36:46;;;;;;;11.05;3.90;;;;;;;;;;5127454;27;20018;-69
2022/04/13 01:39:11;;;;;;;8.23;4.00;;;;;;;;;;5147513;27;20388;-71
2022/04/13 01:41:37;;;;;;;8.88;4.50;;;;;;;;;;5126336;27;20310;-70
2022/04/13 01:44:02;;;;;;;12.63;3.90;;;;;;;;;;5113918;27;20391;-70
2022/04/13 01:46:27;;;;;;;8.43;3.72;;;;;;;;;;5130376;27;20337;-71
2022/04/13 01:48:53;;;;;;;8.32;4.07;;;;;;;;;;5148211;27;20018;-70
2022/04/13 01:51:20;;;;;;;7.50;4.00;;;;;;;;;;5148906;27;20511;-69
2022/04/13 01:53:46;;;;;;;9.40;3.95;;;;;;;;;;5110295;27;20034;-70
2022/04/13 01:56:11;;;;;;;6.47;3.78;;;;;;;;;;5145030;27;20046;-69
2022/04/13 01:58:37;;;;;;;6.53;3.55;;;;;;;;;;5130279;27;20034;-70
2022/04/13 02:01:02;;;;;;;7.22;3.17;;;;;;;;;;5128838;27;20035;-70
2022/04/13 02:03:27;;;;;;;6.70;4.03;;;;;;;;;;5148347;27;20372;-70
2022/04/13 02:05:53;;;;;;;10.43;4.00;;;;;;;;;;5128157;27;20089;-71
2022/04/13 02:08:19;;;;;;;8.13;3.63;;;;;;;;;;5145682;27;20495;-69
2022/04/13 02:10:45;;;;;;;8.23;3.60;;;;;;;;;;5141622;27;20023;-70
2022/04/13 02:13:10;;;;;;;8.30;4.13;;;;;;;;;;5148330;27;20060;-70
2022/04/13 02:15:36;;;;;;;8.50;3.88;;;;;;;;;;5129281;27;20019;-70
2022/04/13 02:18:02;;;;;;;11.55;3.80;;;;;;;;;;5110122;27;20026;-71
2022/04/13 02:20:27;;;;;;;9.93;3.75;;;;;;;;;;5146205;27;20035;-71
2022/04/13 02:22:52;;;;;;;6.40;3.50;;;;;;;;;;5106060;27;20366;-71
2022/04/13 02:25:17;;;;;;;11.57;4.65;;;;;;;;;;5130276;27;20022;-71
2022/04/13 02:27:43;;;;;;;9.68;4.45;;;;;;;;;;5140938;27;20468;-70
2022/04/13 02:30:08;;;;;;;10.88;4.57;;;;;;;;;;5111944;27;20055;-70
2022/04/13 02:32:43;;;;;;;9.05;5.53;;;;;;;;;;5119760;27;20011;-70
2022/04/13 02:35:08;;;;;;;11.45;5.25;;;;;;;;;;5108771;27;20023;-70
2022/04/13 02:37:33;;;;;;;11.95;5.00;;;;;;;;;;5123607;27;20519;-70
2022/04/13 02:39:59;;;;;;;11.50;5.45;;;;;;;;;;5127737;27;20481;-70
2022/04/13 02:42:24;;;;;;;10.18;5.85;;;;;;;;;;5123582;27;20533;-69
2022/04/13 02:44:49;;;;;;;10.70;6.30;;;;;;;;;;5129176;27;20366;-70
2022/04/13 02:47:14;;;;;;;10.48;6.05;;;;;;;;;;5115121;27;20020;-69
2022/04/13 02:49:43;;;;;;;8.63;5.90;;;;;;;;;;5091033;27;20035;-71
2022/04/13 02:52:08;;;;;;;10.05;5.95;;;;;;;;;;5097446;27;20425;-71
2022/04/13 02:54:34;;;;;;;11.77;5.85;;;;;;;;;;5127833;27;20026;-71
2022/04/13 02:56:59;;;;;;;14.45;6.80;;;;;;;;;;5122776;27;20042;-70
2022/04/13 02:59:24;;;;;;;12.80;6.90;;;;;;;;;;5147481;27;20046;-70
2022/04/13 03:01:49;;;;;;;11.90;6.72;;;;;;;;;;5128551;27;20026;-69
2022/04/13 03:04:16;;;;;;;11.75;6.63;;;;;;;;;;5128759;27;20062;-71
2022/04/13 03:06:42;;;;;;;14.57;7.00;;;;;;;;;;5128865;27;20029;-71
2022/04/13 03:09:07;;;;;;;13.05;6.72;;;;;;;;;;5125762;27;20079;-71
2022/04/13 03:11:32;;;;;;;18.50;7.47;;;;;;;;;;5141360;27;20023;-70
2022/04/13 03:13:58;;;;;;;11.60;7.20;;;;;;;;;;5111660;27;20062;-69
2022/04/13 03:16:23;;;;;;;12.63;7.03;;;;;;;;;;5147511;27;20129;-71
2022/04/13 03:18:48;;;;;;;15.50;7.70;;;;;;;;;;5110314;27;20126;-70
2022/04/13 03:21:13;;;;;;;17.58;8.23;;;;;;;;;;5146433;27;20019;-70
2022/04/13 03:23:39;;;;;;;11.02;7.93;;;;;;;;;;5125700;27;20357;-70
2022/04/13 03:26:04;;;;;;;11.43;7.50;;;;;;;;;;5141234;27;20061;-70
2022/04/13 03:28:29;;;;;;;13.60;7.95;;;;;;;;;;5128679;27;20446;-70
2022/04/13 03:30:55;;;;;;;13.75;8.07;;;;;;;;;;5143217;27;20223;-70
2022/04/13 03:33:20;;;;;;;15.10;7.90;;;;;;;;;;5107512;27;20083;-71
2022/04/13 03:35:46;;;;;;;13.02;8.48;;;;;;;;;;5090257;27;20514;-70
2022/04/13 03:38:11;;;;;;;12.23;7.68;;;;;;;;;;5105983;27;20031;-70
2022/04/13 03:40:37;;;;;;;14.48;8.10;;;;;;;;;;5086587;27;20031;-70
2022/04/13 03:43:03;;;;;;;14.57;8.25;;;;;;;;;;5088857;27;20122;-70
2022/04/13 03:45:28;;;;;;;14.50;8.40;;;;;;;;;;5126818;27;20022;-70
2022/04/13 03:47:53;;;;;;;13.65;8.55;;;;;;;;;;5124425;27;20530;-71
2022/04/13 03:50:19;;;;;;;11.68;7.80;;;;;;;;;;5108320;27;20458;-70
2022/04/13 03:52:46;;;;;;;12.18;7.85;;;;;;;;;;5104879;27;20042;-70
2022/04/13 03:55:12;;;;;;;11.07;7.10;;;;;;;;;;5109681;27;20205;-70
2022/04/13 03:57:37;;;;;;;11.55;7.60;;;;;;;;;;5142380;27;20022;-71
2022/04/13 04:00:03;;;;;;;12.75;7.30;;;;;;;;;;5145558;27;20379;-70
2022/04/13 04:02:29;;;;;;;11.18;6.70;;;;;;;;;;5146007;27;20011;-70
2022/04/13 04:04:54;;;;;;;12.30;6.63;;;;;;;;;;5109545;27;20027;-70
2022/04/13 04:07:19;;;;;;;13.15;7.60;;;;;;;;;;5126254;27;20043;-70
2022/04/13 04:09:44;;;;;;;14.15;7.07;;;;;;;;;;5105285;27;20438;-70
2022/04/13 04:12:10;;;;;;;15.93;7.28;;;;;;;;;;5100186;27;20668;-70
2022/04/13 04:14:35;;;;;;;14.55;7.93;;;;;;;;;;5090704;27;20072;-70
2022/04/13 04:17:00;;;;;;;13.73;6.93;;;;;;;;;;5104359;27;20035;-70
2022/04/13 04:19:26;;;;;;;11.85;6.55;;;;;;;;;;5106319;27;20047;-71
2022/04/13 04:21:51;;;;;;;11.10;6.18;;;;;;;;;;5105629;27;20034;-69
2022/04/13 04:24:17;;;;;;;11.70;6.32;;;;;;;;;;5121398;27;20509;-69
2022/04/13 04:26:43;;;;;;;12.65;6.88;;;;;;;;;;5142170;27;20122;-70
2022/04/13 04:29:08;;;;;;;13.02;6.82;;;;;;;;;;5125873;27;20075;-71
2022/04/13 04:31:55;;;;;;;12.57;7.25;;;;;;;;;;5126379;27;20018;-70
2022/04/13 04:34:22;;;;;;;10.90;6.35;;;;;;;;;;5127513;27;20023;-71
2022/04/13 04:36:48;;;;;;;11.90;6.68;;;;;;;;;;5146414;27;20015;-70
2022/04/13 04:39:13;;;;;;;9.95;6.10;;;;;;;;;;5142864;27;20022;-70
2022/04/13 04:41:40;;;;;;;12.15;7.07;;;;;;;;;;5122057;27;20037;-71
2022/04/13 04:44:05;;;;;;;14.13;6.38;;;;;;;;;;5144134;27;20118;-72
2022/04/13 04:46:31;;;;;;;13.48;6.18;;;;;;;;;;5125696;27;20122;-72
2022/04/13 04:48:56;;;;;;;10.40;5.88;;;;;;;;;;5108463;27;20025;-71
2022/04/13 04:51:21;;;;;;;13.55;5.93;;;;;;;;;;5108331;27;20023;-71
2022/04/13 04:53:47;;;;;;;8.55;5.68;;;;;;;;;;5141606;27;20054;-72
2022/04/13 04:56:13;;;;;;;12.30;6.70;;;;;;;;;;5136896;27;20604;-70
2022/04/13 04:58:38;;;;;;;10.25;5.63;;;;;;;;;;5143549;27;20054;-70
2022/04/13 05:01:03;;;;;;;13.07;6.50;;;;;;;;;;5121901;27;20058;-70
2022/04/13 05:03:29;;;;;;;13.90;6.60;;;;;;;;;;5124119;27;20129;-72
2022/04/13 05:06:00;;;;;;;9.60;5.90;;;;;;;;;;5124038;27;20018;-71
2022/04/13 05:08:26;;;;;;;9.05;5.47;;;;;;;;;;5123344;27;20022;-70
2022/04/13 05:10:51;;;;;;;9.63;6.07;;;;;;;;;;5102738;27;20027;-71
2022/04/13 05:13:16;;;;;;;11.60;6.57;;;;;;;;;;5122106;27;20034;-71
2022/04/13 05:15:42;;;;;;;11.85;6.03;;;;;;;;;;5122151;27;20031;-71
2022/04/13 05:18:07;;;;;;;11.60;5.55;;;;;;;;;;5121486;27;20080;-71
2022/04/13 05:20:32;;;;;;;11.13;6.43;;;;;;;;;;5087370;27;20143;-72
2022/04/13 05:23:00;;;;;;;14.50;5.88;;;;;;;;;;5100391;27;20058;-72
2022/04/13 05:25:39;;;;;;;14.98;6.13;;;;;;;;;;5104701;27;20019;-71
2022/04/13 05:28:08;;;;;;;9.65;5.95;;;;;;;;;;5105117;27;20437;-72
2022/04/13 05:30:33;;;;;;;11.35;5.97;;;;;;;;;;5089895;27;20469;-71
2022/04/13 05:32:59;;;;;;;14.32;6.38;;;;;;;;;;5105717;27;20103;-71
2022/04/13 05:35:28;;;;;;;12.60;7.50;;;;;;;;;;5105919;27;20026;-70
2022/04/13 05:38:05;;;;;;;11.07;6.07;;;;;;;;;;5103270;27;20422;-72
2022/04/13 05:40:31;;;;;;;11.75;6.15;;;;;;;;;;5103164;27;20230;-72
2022/04/13 05:42:57;;;;;;;12.35;5.78;;;;;;;;;;5102019;27;20027;-71
2022/04/13 05:45:22;;;;;;;14.80;6.43;;;;;;;;;;5110619;27;20456;-72
2022/04/13 05:47:48;;;;;;;12.35;5.63;;;;;;;;;;5125270;27;20098;-71
2022/04/13 05:50:13;;;;;;;13.57;6.55;;;;;;;;;;5125011;27;20023;-72
2022/04/13 05:52:39;;;;;;;14.95;6.78;;;;;;;;;;5121478;27;20034;-72
2022/04/13 05:55:05;;;;;;;13.18;6.47;;;;;;;;;;5115438;27;20019;-71
2022/04/13 05:57:30;;;;;;;11.48;6.13;;;;;;;;;;5121272;27;20042;-71
2022/04/13 05:59:56;;;;;;;14.32;6.22;;;;;;;;;;5107607;27;20052;-71
2022/04/13 06:02:23;;;;;;;13.20;5.95;;;;;;;;;;5122629;27;20023;-72
2022/04/13 06:04:48;;;;;;;12.18;6.50;;;;;;;;;;5127885;27;20555;-71
2022/04/13 06:07:14;;;;;;;13.20;6.07;;;;;;;;;;5125259;27;20101;-72
2022/04/13 06:09:39;;;;;;;13.25;6.57;;;;;;;;;;5144244;27;20419;-72
2022/04/13 06:12:05;;;;;;;10.15;6.03;;;;;;;;;;5140249;27;20417;-72
2022/04/13 06:14:30;;;;;;;12.43;5.88;;;;;;;;;;5122689;27;20023;-72
2022/04/13 06:16:55;;;;;;;11.27;6.32;;;;;;;;;;5106407;28;20149;-72
2022/04/13 06:19:21;;;;;;;11.80;6.25;;;;;;;;;;5105702;28;20050;-71
2022/04/13 06:21:46;;;;;;;10.38;6.47;;;;;;;;;;5088247;27;20076;-72
2022/04/13 06:24:11;;;;;;;10.38;5.72;;;;;;;;;;5107544;27;20027;-72
2022/04/13 06:26:37;;;;;;;10.65;5.78;;;;;;;;;;5127123;27;20099;-73
2022/04/13 06:29:02;;;;;;;13.27;5.97;;;;;;;;;;5128968;27;20074;-71
2022/04/13 06:31:27;;;;;;;11.70;6.00;;;;;;;;;;5112130;27;20022;-71
2022/04/13 06:33:53;;;;;;;9.25;6.68;;;;;;;;;;5130923;27;20042;-72
2022/04/13 06:36:18;;;;;;;13.00;6.72;;;;;;;;;;5147743;27;20026;-71
2022/04/13 06:38:44;;;;;;;10.85;6.28;;;;;;;;;;5128822;27;20485;-71
2022/04/13 06:41:12;;;;;;;12.43;6.38;;;;;;;;;;5128736;27;20027;-71
2022/04/13 06:43:38;;;;;;;11.32;6.85;;;;;;;;;;5132064;27;20114;-71
2022/04/13 06:46:03;;;;;;;13.32;6.53;;;;;;;;;;5147852;27;20059;-71
2022/04/13 06:48:29;;;;;;;11.25;6.40;;;;;;;;;;5130176;27;20015;-72
2022/04/13 06:50:54;;;;;;;14.55;6.80;;;;;;;;;;5129770;27;20372;-71
2022/04/13 06:53:19;;;;;;;16.13;7.32;;;;;;;;;;5144762;27;20027;-72
2022/04/13 06:55:45;;;;;;;12.48;7.15;;;;;;;;;;5105260;27;20051;-73
2022/04/13 06:58:10;;;;;;;12.88;7.18;;;;;;;;;;5102717;28;20500;-71
2022/04/13 07:00:36;;;;;;;13.77;7.10;;;;;;;;;;5118823;27;20548;-73
2022/04/13 07:03:02;;;;;;;12.40;7.18;;;;;;;;;;5126887;27;20041;-72
2022/04/13 07:05:28;;;;;;;15.82;7.53;;;;;;;;;;5124399;27;20023;-72
2022/04/13 07:07:54;;;;;;;17.20;6.57;;;;;;;;;;5106257;27;20053;-71
2022/04/13 07:10:21;;;;;;;17.33;7.47;;;;;;;;;;5114417;27;20445;-72
2022/04/13 07:12:46;;;;;;;13.10;6.63;;;;;;;;;;5082571;28;20682;-72
2022/04/13 07:15:12;;;;;;;8.43;6.00;;;;;;;;;;5103660;28;20095;-71
2022/04/13 07:17:37;;;;;;;15.10;6.65;;;;;;;;;;5107781;28;20118;-72
2022/04/13 07:20:03;;;;;;;15.23;6.07;;;;;;;;;;5088401;28;20023;-72
2022/04/13 07:22:29;;;;;;;12.38;5.85;;;;;;;;;;5084273;28;20452;-72
2022/04/13 07:24:55;;;;;;;14.25;5.90;;;;;;;;;;5087913;28;20032;-72
2022/04/13 07:27:20;;;;;;;13.15;5.50;;;;;;;;;;5082578;28;20054;-72
2022/04/13 07:29:46;;;;;;;12.80;5.78;;;;;;;;;;5089645;28;20020;-72
2022/04/13 07:32:11;;;;;;;10.85;5.43;;;;;;;;;;5104510;28;20030;-72
2022/04/13 07:34:36;;;;;;;11.63;4.93;;;;;;;;;;5086286;28;20114;-72
2022/04/13 07:37:02;;;;;;;13.77;5.53;;;;;;;;;;5104821;28;20114;-71
2022/04/13 07:39:28;;;;;;;12.20;5.60;;;;;;;;;;5101777;27;20015;-72
2022/04/13 07:41:53;;;;;;;10.95;5.18;;;;;;;;;;5106126;27;20096;-71
2022/04/13 07:44:18;;;;;;;14.85;5.30;;;;;;;;;;5124849;27;20054;-71
2022/04/13 07:46:43;;;;;;;12.85;5.40;;;;;;;;;;5123811;27;20384;-72
2022/04/13 07:49:09;;;;;;;12.40;5.13;;;;;;;;;;5124666;27;20125;-72
2022/04/13 07:51:34;;;;;;;15.02;6.05;;;;;;;;;;5124875;27;20070;-72
2022/04/13 07:54:01;;;;;;;12.35;5.25;;;;;;;;;;5123196;27;20027;-73
2022/04/13 07:56:27;;;;;;;14.43;5.20;;;;;;;;;;5112194;27;20349;-73
2022/04/13 07:58:52;;;;;;;15.05;5.22;;;;;;;;;;5105555;28;20431;-71
2022/04/13 08:01:17;;;;;;;12.70;5.55;;;;;;;;;;5115978;27;20027;-71
2022/04/13 08:03:42;;;;;;;10.35;4.95;;;;;;;;;;5124833;27;20069;-71
2022/04/13 08:06:11;;;;;;;9.95;5.10;;;;;;;;;;5124208;27;20054;-72
2022/04/13 08:08:37;;;;;;;11.75;5.30;;;;;;;;;;5104547;27;20031;-72
2022/04/13 08:11:02;;;;;;;11.50;5.53;;;;;;;;;;5120195;27;20381;-71
2022/04/13 08:13:28;;;;;;;15.48;5.47;;;;;;;;;;5091532;27;20140;-72
2022/04/13 08:15:53;;;;;;;13.55;5.00;;;;;;;;;;5125072;27;20061;-72
2022/04/13 08:18:18;;;;;;;10.38;5.00;;;;;;;;;;5105591;27;20030;-72
2022/04/13 08:20:45;;;;;;;12.35;5.00;;;;;;;;;;5123597;27;20429;-72
2022/04/13 08:23:10;;;;;;;15.15;5.65;;;;;;;;;;5123218;27;20019;-72
2022/04/13 08:25:39;;;;;;;13.10;4.90;;;;;;;;;;5102599;27;20068;-72
2022/04/13 08:28:04;;;;;;;13.55;5.43;;;;;;;;;;5083123;28;20028;-71
2022/04/13 08:30:30;;;;;;;12.40;4.95;;;;;;;;;;5104650;27;20027;-71
2022/04/13 08:32:56;;;;;;;10.52;4.75;;;;;;;;;;5085138;28;20020;-71
2022/04/13 08:35:21;;;;;;;8.85;4.03;;;;;;;;;;5106734;27;20020;-71
2022/04/13 08:37:46;;;;;;;16.85;4.60;;;;;;;;;;5123091;27;20031;-71
2022/04/13 08:40:12;;;;;;;9.88;4.53;;;;;;;;;;5125227;27;20015;-72
2022/04/13 08:42:50;;;;;;;11.38;4.22;;;;;;;;;;5101184;27;20347;-73
2022/04/13 08:45:23;;;;;;;12.38;4.20;;;;;;;;;;5122952;27;20019;-72
2022/04/13 08:47:50;;;;;;;8.73;4.32;;;;;;;;;;5124897;27;20064;-71
2022/04/13 08:50:16;;;;;;;11.88;3.83;;;;;;;;;;5124264;27;20470;-72
2022/04/13 08:52:49;;;;;;;11.70;3.90;;;;;;;;;;5122012;27;20023;-73
2022/04/13 08:55:16;;;;;;;12.32;3.95;;;;;;;;;;5126090;27;20062;-73
2022/04/13 08:57:49;;;;;;;10.52;4.07;;;;;;;;;;5105553;27;20506;-72
2022/04/13 09:00:15;;;;;;;8.85;3.97;;;;;;;;;;5127504;27;20052;-71
2022/04/13 09:02:50;;;;;;;12.05;3.80;;;;;;;;;;5126510;27;20553;-72
2022/04/13 09:05:19;;;;;;;7.28;3.42;;;;;;;;;;5127932;27;20018;-72
2022/04/13 09:08:05;;;;;;;11.52;3.03;;;;;;;;;;5125255;27;20015;-73
2022/04/13 09:10:31;;;;;;;8.43;3.35;;;;;;;;;;5142393;27;20365;-72
2022/04/13 09:12:57;;;;;;;7.75;2.88;;;;;;;;;;5125803;27;20046;-75
2022/04/13 09:15:22;;;;;;;8.40;2.80;;;;;;;;;;5145093;27;20445;-72
2022/04/13 09:17:48;;;;;;;10.40;2.65;;;;;;;;;;5144168;27;20473;-72
2022/04/13 09:20:15;;;;;;;8.80;3.40;;;;;;;;;;5126345;27;20030;-72
2022/04/13 09:22:41;;;;;;;12.02;3.05;;;;;;;;;;5122705;27;20018;-74
2022/04/13 09:25:07;;;;;;;7.07;2.65;;;;;;;;;;5128034;27;20390;-74
2022/04/13 09:27:33;;;;;;;8.38;3.03;;;;;;;;;;5119675;27;20021;-73
2022/04/13 09:29:58;;;;;;;8.45;2.63;;;;;;;;;;5127868;27;20027;-72
2022/04/13 09:32:23;;;;;;;11.20;3.28;;;;;;;;;;5123585;27;20155;-73
2022/04/13 09:34:50;;;;;;;13.77;2.80;;;;;;;;;;5111707;27;20051;-72
2022/04/13 09:37:16;;;;;;;7.85;2.50;;;;;;;;;;5131299;27;20027;-73
2022/04/13 09:39:45;;;;;;;5.63;2.30;;;;;;;;;;5127175;27;20117;-73
2022/04/13 09:42:12;;;;;;;8.23;2.35;;;;;;;;;;5122919;27;20153;-72
2022/04/13 09:44:40;;;;;;;5.20;2.38;;;;;;;;;;5146277;27;20058;-72
2022/04/13 09:47:06;;;;;;;7.68;2.53;;;;;;;;;;5138940;27;20474;-73
2022/04/13 09:49:31;;;;;;;10.70;3.05;;;;;;;;;;5125875;27;20029;-73
2022/04/13 09:51:56;;;;;;;11.80;3.30;;;;;;;;;;5125667;27;20015;-72
2022/04/13 09:54:25;;;;;;;7.28;3.10;;;;;;;;;;5124159;27;20449;-72
2022/04/13 09:56:50;;;;;;;10.50;2.92;;;;;;;;;;5123278;27;20415;-72
2022/04/13 09:59:26;;;;;;;6.13;3.08;;;;;;;;;;5111347;27;20049;-73
2022/04/13 10:01:51;;;;;;;9.05;2.83;;;;;;;;;;5127567;27;20265;-71
2022/04/13 10:04:43;;;;;;;10.48;2.90;;;;;;;;;;5093670;27;20130;-72
2022/04/13 10:07:15;;;;;;;6.35;2.78;;;;;;;;;;5104713;27;20450;-72
2022/04/13 10:09:41;;;;;;;8.10;2.67;;;;;;;;;;5126752;27;20600;-72
2022/04/13 10:12:08;;;;;;;11.20;3.58;;;;;;;;;;5105807;27;20134;-73
2022/04/13 10:14:33;;;;;;;8.27;3.00;;;;;;;;;;5109393;27;20019;-73
2022/04/13 10:17:08;;;;;;;7.05;3.00;;;;;;;;;;5092387;27;20506;-72
2022/04/13 10:19:34;;;;;;;6.97;3.22;;;;;;;;;;5106851;27;20496;-73
2022/04/13 10:22:00;;;;;;;8.85;3.15;;;;;;;;;;5107649;27;20027;-73
2022/04/13 10:24:26;;;;;;;9.30;3.75;;;;;;;;;;5123883;27;20113;-72
2022/04/13 10:27:11;;;;;;;9.50;3.40;;;;;;;;;;5089539;27;20064;-73
2022/04/13 10:29:37;;;;;;;8.20;3.83;;;;;;;;;;5127403;27;20015;-72
2022/04/13 10:32:03;;;;;;;9.23;3.50;;;;;;;;;;5127314;27;20023;-72
2022/04/13 10:34:29;;;;;;;8.77;3.97;;;;;;;;;;5128571;27;20050;-72
2022/04/13 10:36:54;;;;;;;9.50;3.95;;;;;;;;;;5131421;27;20023;-72
2022/04/13 10:39:20;;;;;;;10.18;4.05;;;;;;;;;;5101679;27;20026;-73
2022/04/13 10:41:48;;;;;;;11.02;3.90;;;;;;;;;;5095311;27;20034;-72
2022/04/13 10:44:13;;;;;;;6.85;4.18;;;;;;;;;;5128164;27;20362;-74
2022/04/13 10:46:39;;;;;;;7.97;4.13;;;;;;;;;;5128451;27;20015;-73
2022/04/13 10:49:07;;;;;;;13.18;4.80;;;;;;;;;;5093767;27;20022;-73
2022/04/13 10:51:34;;;;;;;12.18;4.25;;;;;;;;;;5107654;27;20023;-72
2022/04/13 10:54:02;;;;;;;12.52;6.15;;;;;;;;;;5108615;27;20034;-73
2022/04/13 10:56:30;;;;;;;13.75;5.53;;;;;;;;;;5085655;28;20104;-72
2022/04/13 10:59:15;;;;;;;13.07;6.38;;;;;;;;;;5107783;28;20015;-73
2022/04/13 11:01:52;;;;;;;15.90;5.03;;;;;;;;;;5104196;28;20132;-72
2022/04/13 11:04:19;;;;;;;11.70;4.60;;;;;;;;;;5106577;28;20389;-74
2022/04/13 11:06:45;;;;;;;9.98;4.55;;;;;;;;;;5105025;28;20599;-73
2022/04/13 11:09:21;;;;;;;10.48;4.93;;;;;;;;;;5104910;28;20502;-73
2022/04/13 11:11:47;;;;;;;12.48;4.43;;;;;;;;;;5101331;28;20537;-72
2022/04/13 11:14:19;;;;;;;11.23;4.28;;;;;;;;;;5088784;28;20028;-73
2022/04/13 11:16:45;;;;;;;8.75;4.30;;;;;;;;;;5110316;28;20134;-73
2022/04/13 11:19:10;;;;;;;9.30;4.10;;;;;;;;;;5107227;28;20140;-74
2022/04/13 11:21:55;;;;;;;10.93;3.78;;;;;;;;;;5103157;28;20113;-73
2022/04/13 11:24:39;;;;;;;7.30;4.28;;;;;;;;;;5104347;28;20542;-72
2022/04/13 11:27:06;;;;;;;8.45;4.38;;;;;;;;;;5101750;28;20034;-74
2022/04/13 11:29:35;;;;;;;9.98;4.20;;;;;;;;;;5105208;28;20114;-72
2022/04/13 11:32:00;;;;;;;10.75;4.28;;;;;;;;;;5104368;28;20016;-73
2022/04/13 11:34:29;;;;;;;11.07;4.88;;;;;;;;;;5104335;28;20024;-73
2022/04/13 11:36:58;;;;;;;17.33;5.10;;;;;;;;;;5104818;28;20111;-73
2022/04/13 11:39:42;;;;;;;12.25;4.68;;;;;;;;;;5105737;28;20029;-74
2022/04/13 11:42:13;;;;;;;9.23;4.45;;;;;;;;;;5103073;28;20029;-73
2022/04/13 11:44:48;;;;;;;11.13;5.05;;;;;;;;;;5104600;28;20031;-72
2022/04/13 11:47:17;;;;;;;11.68;4.38;;;;;;;;;;5106690;28;20023;-73
2022/04/13 11:49:56;;;;;;;8.15;3.53;;;;;;;;;;5105186;27;20542;-73
2022/04/13 11:52:41;;;;;;;7.10;3.45;;;;;;;;;;5125695;27;20054;-73
2022/04/13 11:55:27;;;;;;;9.23;4.30;;;;;;;;;;5125572;27;20372;-73
2022/04/13 11:57:52;;;;;;;13.50;3.80;;;;;;;;;;5105276;27;20039;-72
2022/04/13 12:00:37;;;;;;;9.40;3.78;;;;;;;;;;5125372;27;20057;-72
2022/04/13 12:03:04;;;;;;;6.18;3.10;;;;;;;;;;5126977;27;20448;-73
2022/04/13 12:05:30;;;;;;;7.57;3.30;;;;;;;;;;5124184;27;20057;-72
2022/04/13 12:07:58;;;;;;;7.43;3.38;;;;;;;;;;5124262;27;20075;-72
2022/04/13 12:10:25;;;;;;;9.32;3.00;;;;;;;;;;5126479;27;20026;-72
2022/04/13 12:12:55;;;;;;;6.70;3.22;;;;;;;;;;5121889;27;20023;-73
2022/04/13 12:15:23;;;;;;;7.35;3.00;;;;;;;;;;5108061;27;20046;-73
2022/04/13 12:17:49;;;;;;;6.25;3.10;;;;;;;;;;5125368;27;20194;-73
2022/04/13 12:20:32;;;;;;;6.90;2.88;;;;;;;;;;5106667;27;20613;-73
2022/04/13 12:22:57;;;;;;;10.68;2.97;;;;;;;;;;5123017;27;20019;-73
2022/04/13 12:25:24;;;;;;;4.85;2.60;;;;;;;;;;5116334;27;20063;-73
2022/04/13 12:28:03;;;;;;;6.28;2.58;;;;;;;;;;5084293;28;20541;-73
2022/04/13 12:30:29;;;;;;;5.55;2.33;;;;;;;;;;5105828;28;20501;-72
2022/04/13 12:32:54;;;;;;;7.97;2.55;;;;;;;;;;5102304;28;20027;-72
2022/04/13 12:35:19;;;;;;;6.80;2.58;;;;;;;;;;5107901;28;20026;-72
2022/04/13 12:37:49;;;;;;;8.35;2.97;;;;;;;;;;5083937;28;20829;-73
2022/04/13 12:40:21;;;;;;;6.22;2.50;;;;;;;;;;5105569;28;20084;-73
2022/04/13 12:42:47;;;;;;;9.13;3.10;;;;;;;;;;5099326;28;20089;-73
2022/04/13 12:45:12;;;;;;;7.57;2.38;;;;;;;;;;5104758;28;20031;-73
2022/04/13 12:47:47;;;;;;;8.32;3.00;;;;;;;;;;5099938;28;20085;-72
2022/04/13 12:50:13;;;;;;;7.07;3.17;;;;;;;;;;5105371;28;20464;-72
2022/04/13 12:52:39;;;;;;;8.25;2.67;;;;;;;;;;5101199;28;20424;-72
2022/04/13 12:55:04;;;;;;;10.30;3.00;;;;;;;;;;5104875;28;20110;-71
2022/04/13 12:57:30;;;;;;;8.38;2.90;;;;;;;;;;5126904;27;20465;-70
2022/04/13 12:59:56;;;;;;;6.70;2.40;;;;;;;;;;5113340;27;20111;-70
2022/04/13 13:02:21;;;;;;;9.85;2.40;;;;;;;;;;5118939;27;20050;-72
2022/04/13 13:04:48;;;;;;;5.97;2.30;;;;;;;;;;5100306;27;20080;-72
2022/04/13 13:07:13;;;;;;;6.30;2.50;;;;;;;;;;5119941;27;20473;-72
2022/04/13 13:09:39;;;;;;;7.25;2.50;;;;;;;;;;5098506;27;20022;-68
2022/04/13 13:12:15;;;;;;;6.75;2.10;;;;;;;;;;5117555;27;20019;-67
2022/04/13 13:14:47;;;;;;;5.43;2.10;;;;;;;;;;5123063;27;20216;-68
2022/04/13 13:17:16;;;;;;;6.75;2.30;;;;;;;;;;5140688;27;20037;-67
2022/04/13 13:19:42;;;;;;;4.55;1.88;;;;;;;;;;5139999;27;20033;-67
2022/04/13 13:22:10;;;;;;;5.30;2.00;;;;;;;;;;5120367;27;20040;-69
2022/04/13 13:24:36;;;;;;;8.98;2.10;;;;;;;;;;5119342;27;20752;-71
2022/04/13 13:27:03;;;;;;;6.28;2.40;;;;;;;;;;5118620;27;20505;-67
2022/04/13 13:29:28;;;;;;;4.00;2.10;;;;;;;;;;5139041;27;20057;-67
2022/04/13 13:31:53;;;;;;;5.32;2.20;;;;;;;;;;5119786;27;20466;-68
2022/04/13 13:34:22;;;;;;;6.65;2.40;;;;;;;;;;5139735;27;20117;-66
2022/04/13 13:36:56;;;;;;;4.72;2.38;;;;;;;;;;5103426;27;20259;-70
2022/04/13 13:39:23;;;;;;;7.57;2.60;;;;;;;;;;5138628;27;20505;-69
2022/04/13 13:42:02;;;;;;;5.90;2.00;;;;;;;;;;5100182;27;20315;-67
2022/04/13 13:44:27;;;;;;;6.93;2.35;;;;;;;;;;5143762;27;20055;-68
2022/04/13 13:46:52;;;;;;;5.65;2.30;;;;;;;;;;5117489;27;20069;-67
2022/04/13 13:49:17;;;;;;;5.93;2.20;;;;;;;;;;5122703;27;20114;-69
2022/04/13 13:51:43;;;;;;;6.72;2.67;;;;;;;;;;5120879;27;20023;-69
2022/04/13 13:54:08;;;;;;;7.38;2.25;;;;;;;;;;5103218;27;20066;-69
2022/04/13 13:56:33;;;;;;;5.22;1.98;;;;;;;;;;5118828;27;20075;-70
2022/04/13 13:58:59;;;;;;;5.25;2.00;;;;;;;;;;5102055;27;20091;-71
2022/04/13 14:01:26;;;;;;;4.82;1.83;;;;;;;;;;5140973;27;20492;-67
2022/04/13 14:03:51;;;;;;;7.85;2.10;;;;;;;;;;5119903;27;20094;-68
2022/04/13 14:06:17;;;;;;;7.20;2.00;;;;;;;;;;5102625;27;20039;-67
2022/04/13 14:08:42;;;;;;;5.07;1.63;;;;;;;;;;5118781;27;20019;-68
2022/04/13 14:11:07;;;;;;;6.28;1.80;;;;;;;;;;5115859;27;20011;-66
2022/04/13 14:13:32;;;;;;;4.22;1.48;;;;;;;;;;5133796;27;21027;-69
2022/04/13 14:15:59;;;;;;;4.90;1.90;;;;;;;;;;5094878;27;20291;-69
2022/04/13 14:18:24;;;;;;;3.95;2.00;;;;;;;;;;5078535;27;20477;-70
2022/04/13 14:20:50;;;;;;;5.60;1.70;;;;;;;;;;5103114;27;20076;-70
2022/04/13 14:23:15;;;;;;;6.05;1.50;;;;;;;;;;5104336;27;20023;-71
2022/04/13 14:25:41;;;;;;;5.22;1.88;;;;;;;;;;5099744;27;20057;-69
2022/04/13 14:28:06;;;;;;;6.32;1.85;;;;;;;;;;5086626;27;20047;-70
2022/04/13 14:30:31;;;;;;;5.25;1.60;;;;;;;;;;5102994;27;20094;-72
2022/04/13 14:32:57;;;;;;;5.93;1.77;;;;;;;;;;5085075;27;20038;-71
2022/04/13 14:35:22;;;;;;;5.80;1.60;;;;;;;;;;5121863;27;20019;-70